Aviation Digital Data Service (ADDS)

Output produced by TAFs form (2027 UTC 20 July 2017)
found at http://www.aviationweather.gov/adds/tafs/
 
Forecast for: RJCM (MEMAMBETSU AIRPO, JP)
Text: TAF RJCM 201715Z 2018/2200 20013KT 9999 FEW020
Forecast period: 1800 UTC 20 July 2017 to 1800 UTC 21 July 2017
Forecast type: FROM: standard forecast or significant change
Winds: from the SSW (200 degrees) at 15 MPH (13 knots; 6.8 m/s)
Visibility: 6 or more miles (10+ km)
Clouds: few clouds at 2000 feet AGL
Weather: no significant weather forecast for this period
Text: BECMG 2118/2121 35009KT
Forecast period: 1800 UTC 21 July 2017 to 0000 UTC 22 July 2017
Forecast type: BECOMING: Conditions expected to become as follows by 2100 UTC 21 July 2017
Winds: from the N (350 degrees) at 10 MPH (9 knots; 4.7 m/s)
Visibility: 6 or more miles (10+ km)
Clouds: few clouds at 2000 feet AGL
Weather: no significant weather forecast for this period
Text: TEMPO 2118/2200 4000 TSRA BR BKN008 BKN025 FEW025CB
Forecast period: 1800 UTC 21 July 2017 to 0000 UTC 22 July 2017
Forecast type: TEMPORARY: The following changes expected for less than half the time period
Visibility: 2.49 miles (4.01 km)
Ceiling: 800 feet AGL
Clouds: broken clouds at 800 feet AGL
broken clouds at 2500 feet AGL
few clouds at 2500 feet AGL
Weather: TSRA BR  (rain associated with thunderstorm(s), mist)